createdAt,value
2018-09-14T00:01:45.042Z,17.40
2018-09-14T00:04:14.500Z,17.50
2018-09-14T00:06:43.187Z,17.50
2018-09-14T00:09:13.114Z,17.50
2018-09-14T00:11:42.392Z,17.40
2018-09-14T00:14:10.994Z,17.50
2018-09-14T00:16:39.694Z,17.50
2018-09-14T00:19:08.357Z,17.40
2018-09-14T00:21:37.482Z,17.40
2018-09-14T00:24:06.650Z,17.50
2018-09-14T00:26:35.204Z,17.50
2018-09-14T00:29:03.993Z,17.60
2018-09-14T00:31:33.173Z,17.60
2018-09-14T00:34:02.296Z,17.60
2018-09-14T00:36:31.780Z,17.50
2018-09-14T00:39:00.296Z,17.40
2018-09-14T00:41:29.339Z,17.30
2018-09-14T00:43:58.081Z,17.40
2018-09-14T00:46:26.871Z,17.40
2018-09-14T00:48:56.486Z,17.40
2018-09-14T00:51:25.351Z,17.50
2018-09-14T00:53:54.676Z,17.50
2018-09-14T00:56:24.128Z,17.50
2018-09-14T00:58:52.744Z,17.60
2018-09-14T01:01:22.090Z,17.50
2018-09-14T01:03:50.762Z,17.60
2018-09-14T01:06:19.545Z,17.60
2018-09-14T01:08:48.970Z,17.60
2018-09-14T01:11:17.654Z,17.60
2018-09-14T01:13:47.201Z,17.60
2018-09-14T01:16:15.882Z,17.60
2018-09-14T01:18:44.689Z,17.60
2018-09-14T01:21:13.714Z,17.60
2018-09-14T01:23:43.081Z,17.60
2018-09-14T01:26:11.691Z,17.60
2018-09-14T01:28:40.490Z,17.70
2018-09-14T01:31:09.815Z,17.60
2018-09-14T01:33:38.503Z,17.60
2018-09-14T01:36:11.877Z,17.60
2018-09-14T01:38:41.469Z,17.60
2018-09-14T01:41:10.588Z,17.60
2018-09-14T01:43:40.064Z,17.60
2018-09-14T01:46:09.167Z,17.70
2018-09-14T01:48:37.769Z,17.70
2018-09-14T01:51:06.519Z,17.70
2018-09-14T01:53:36.165Z,17.80
2018-09-14T01:56:05.188Z,17.80
2018-09-14T01:58:33.963Z,17.80
2018-09-14T02:01:02.661Z,17.70
2018-09-14T02:03:31.250Z,17.80
2018-09-14T02:06:00.582Z,17.70
2018-09-14T02:08:29.265Z,17.70
2018-09-14T02:10:58.014Z,17.70
2018-09-14T02:13:26.701Z,17.70
2018-09-14T02:15:55.401Z,17.70
2018-09-14T02:18:24.309Z,17.60
2018-09-14T02:20:53.075Z,17.60
2018-09-14T02:23:21.773Z,17.60
2018-09-14T02:25:51.294Z,17.60
2018-09-14T02:28:20.744Z,17.60
2018-09-14T02:30:49.499Z,17.50
2018-09-14T02:33:18.337Z,17.50
2018-09-14T02:35:46.906Z,17.50
2018-09-14T02:38:15.570Z,17.40
2018-09-14T02:40:44.286Z,17.50
2018-09-14T02:43:13.087Z,17.50
2018-09-14T02:45:42.339Z,17.50
2018-09-14T02:48:11.682Z,17.50
2018-09-14T02:50:40.198Z,17.50
2018-09-14T02:53:08.903Z,17.50
2018-09-14T02:55:37.639Z,17.50
2018-09-14T02:58:06.634Z,17.50
2018-09-14T03:00:36.083Z,17.50
2018-09-14T03:03:04.699Z,17.40
2018-09-14T03:05:33.573Z,17.40
2018-09-14T03:08:02.569Z,17.50
2018-09-14T03:10:31.664Z,17.50
2018-09-14T03:13:00.357Z,17.50
2018-09-14T03:15:29.847Z,17.50
2018-09-14T03:17:58.408Z,17.50
2018-09-14T03:20:27.756Z,17.50
2018-09-14T03:22:56.985Z,17.50
2018-09-14T03:25:26.101Z,17.50
2018-09-14T03:27:56.392Z,17.50
2018-09-14T03:30:25.063Z,17.50
2018-09-14T03:32:53.697Z,17.50
2018-09-14T03:35:22.350Z,17.40
2018-09-14T03:37:50.918Z,17.40
2018-09-14T03:40:19.718Z,17.40
2018-09-14T03:42:48.254Z,17.50
2018-09-14T03:45:17.100Z,17.50
2018-09-14T03:47:45.703Z,17.50
2018-09-14T03:50:14.632Z,17.50
2018-09-14T03:52:43.216Z,17.50
2018-09-14T03:55:12.686Z,17.50
2018-09-14T03:57:42.578Z,17.50
2018-09-14T04:00:11.914Z,17.60
2018-09-14T04:02:40.463Z,17.60
2018-09-14T04:05:08.988Z,17.50
2018-09-14T04:07:37.650Z,17.50
2018-09-14T04:10:06.155Z,17.50
2018-09-14T04:12:34.736Z,17.60
2018-09-14T04:15:03.293Z,17.50
2018-09-14T04:17:32.829Z,17.50
2018-09-14T04:20:04.210Z,17.60
2018-09-14T04:22:32.813Z,17.60
2018-09-14T04:25:01.706Z,17.60
2018-09-14T04:27:31.003Z,17.60
2018-09-14T04:29:59.578Z,17.60
2018-09-14T04:32:28.485Z,17.70
2018-09-14T04:34:57.197Z,17.70
2018-09-14T04:37:26.279Z,17.70
2018-09-14T04:39:55.870Z,17.70
2018-09-14T04:42:25.375Z,17.60
2018-09-14T04:44:54.335Z,17.60
2018-09-14T04:47:23.711Z,17.60
2018-09-14T04:49:52.643Z,17.60
2018-09-14T04:52:22.776Z,17.60
2018-09-14T04:54:51.369Z,17.50
2018-09-14T04:57:20.815Z,17.50
2018-09-14T04:59:50.783Z,17.50
2018-09-14T05:02:19.269Z,17.60
2018-09-14T05:04:47.930Z,17.60
2018-09-14T05:07:16.423Z,17.60
2018-09-14T05:09:44.989Z,17.60
2018-09-14T05:12:13.695Z,17.50
2018-09-14T05:14:42.468Z,17.50
2018-09-14T05:17:10.939Z,17.60
2018-09-14T05:19:40.239Z,17.60
2018-09-14T05:22:09.623Z,17.60
2018-09-14T05:24:38.235Z,17.60
2018-09-14T05:27:06.737Z,17.60
2018-09-14T05:29:35.287Z,17.60
2018-09-14T05:32:03.848Z,17.50
2018-09-14T05:34:32.550Z,17.60
2018-09-14T05:37:01.187Z,17.60
2018-09-14T05:39:29.706Z,17.60
2018-09-14T05:41:58.187Z,17.60
2018-09-14T05:44:26.750Z,17.60
2018-09-14T05:46:55.268Z,17.60
2018-09-14T05:49:23.971Z,17.70
2018-09-14T05:51:52.555Z,17.60
2018-09-14T05:54:21.620Z,17.60
2018-09-14T05:56:50.115Z,17.70
2018-09-14T05:59:18.633Z,17.70
2018-09-14T06:01:47.815Z,17.80
2018-09-14T06:04:16.449Z,17.80
2018-09-14T06:06:45.062Z,17.80
2018-09-14T06:09:14.058Z,17.80
2018-09-14T06:11:43.277Z,17.70
2018-09-14T06:14:11.960Z,17.80
2018-09-14T06:16:40.822Z,17.70
2018-09-14T06:19:09.466Z,17.70
2018-09-14T06:21:37.965Z,17.70
2018-09-14T06:24:07.292Z,17.70
2018-09-14T06:26:36.180Z,17.70
2018-09-14T06:29:05.166Z,17.50
2018-09-14T06:31:33.900Z,17.40
2018-09-14T06:34:02.521Z,17.30
2018-09-14T06:36:31.054Z,17.10
2018-09-14T06:39:00.226Z,17.10
2018-09-14T06:41:29.179Z,17.10
2018-09-14T06:43:57.754Z,17.10
2018-09-14T06:46:26.261Z,17.20
2018-09-14T06:48:54.826Z,17.30
2018-09-14T06:51:23.455Z,17.40
2018-09-14T06:53:52.076Z,17.50
2018-09-14T06:56:20.617Z,17.60
2018-09-14T06:58:49.437Z,17.70
2018-09-14T07:01:18.594Z,17.90
2018-09-14T07:03:47.295Z,18.00
2018-09-14T07:06:15.913Z,18.10
2018-09-14T07:08:44.478Z,18.10
2018-09-14T07:11:13.327Z,18.10
2018-09-14T07:13:41.829Z,18.10
2018-09-14T07:16:10.403Z,18.00
2018-09-14T07:18:39.912Z,17.90
2018-09-14T07:21:09.246Z,17.80
2018-09-14T07:23:37.929Z,17.70
2018-09-14T07:26:06.491Z,17.80
2018-09-14T07:28:36.112Z,17.80
2018-09-14T07:31:04.776Z,17.80
2018-09-14T07:33:34.108Z,17.90
2018-09-14T07:36:02.670Z,17.90
2018-09-14T07:38:31.302Z,17.80
2018-09-14T07:40:59.872Z,17.70
2018-09-14T07:43:28.372Z,17.70
2018-09-14T07:45:57.019Z,17.70
2018-09-14T07:48:26.269Z,17.70
2018-09-14T07:50:54.737Z,17.70
2018-09-14T07:53:23.365Z,17.80
2018-09-14T07:55:52.080Z,17.90
2018-09-14T07:58:20.758Z,18.00
2018-09-14T08:00:49.357Z,18.10
2018-09-14T08:03:17.986Z,18.10
2018-09-14T08:05:46.850Z,18.00
2018-09-14T08:08:15.386Z,18.00
2018-09-14T08:10:43.985Z,17.90
2018-09-14T08:13:12.531Z,18.00
2018-09-14T08:15:41.103Z,18.10
2018-09-14T08:18:10.364Z,18.10
2018-09-14T08:20:38.961Z,18.10
2018-09-14T08:23:07.604Z,18.20
2018-09-14T08:25:36.207Z,18.20
2018-09-14T08:28:05.363Z,18.10
2018-09-14T08:30:34.180Z,18.20
2018-09-14T08:33:02.907Z,18.40
2018-09-14T08:35:38.637Z,18.50
2018-09-14T08:38:07.392Z,18.60
2018-09-14T08:40:42.486Z,18.70
2018-09-14T08:43:11.778Z,18.70
2018-09-14T08:45:40.791Z,18.70
2018-09-14T08:48:09.458Z,18.80
2018-09-14T08:50:37.922Z,18.80
2018-09-14T08:53:07.067Z,18.90
2018-09-14T08:55:36.246Z,18.90
2018-09-14T08:58:05.247Z,19.00
2018-09-14T09:00:34.071Z,19.10
2018-09-14T09:03:02.568Z,19.10
2018-09-14T09:05:31.880Z,19.20
2018-09-14T09:08:00.430Z,19.20
2018-09-14T09:10:29.121Z,19.30
2018-09-14T09:12:58.289Z,19.30
2018-09-14T09:15:27.012Z,19.20
2018-09-14T09:17:55.872Z,19.20
2018-09-14T09:20:25.246Z,19.20
2018-09-14T09:22:53.814Z,19.00
2018-09-14T09:25:22.309Z,19.00
2018-09-14T09:27:50.852Z,19.10
2018-09-14T09:30:19.509Z,19.10
2018-09-14T09:32:48.902Z,19.10
2018-09-14T09:35:17.454Z,19.20
2018-09-14T09:37:46.108Z,19.30
2018-09-14T09:40:14.713Z,19.20
2018-09-14T09:42:43.296Z,19.30
2018-09-14T09:45:11.886Z,19.30
2018-09-14T09:47:40.456Z,19.40
2018-09-14T09:50:09.098Z,19.50
2018-09-14T09:52:37.571Z,19.70
2018-09-14T09:55:06.267Z,19.90
2018-09-14T09:57:34.891Z,20.40
2018-09-14T10:00:03.429Z,20.60
2018-09-14T10:02:37.445Z,20.70
2018-09-14T10:06:13.130Z,20.70
2018-09-14T10:08:42.047Z,20.60
2018-09-14T10:11:11.187Z,20.00
2018-09-14T10:13:40.257Z,19.90
2018-09-14T10:16:08.767Z,20.00
2018-09-14T10:18:37.294Z,20.00
2018-09-14T10:21:06.336Z,20.20
2018-09-14T10:23:35.960Z,20.30
2018-09-14T10:26:04.594Z,20.40
2018-09-14T10:28:33.300Z,20.30
2018-09-14T10:31:02.464Z,20.00
2018-09-14T10:33:31.092Z,19.80
2018-09-14T10:35:59.639Z,19.70
2018-09-14T10:38:28.252Z,19.70
2018-09-14T10:40:56.846Z,19.80
2018-09-14T10:43:25.425Z,19.80
2018-09-14T10:45:54.013Z,20.00
2018-09-14T10:48:22.518Z,20.10
2018-09-14T10:50:51.077Z,20.10
2018-09-14T10:53:19.720Z,20.00
2018-09-14T10:55:48.236Z,19.90
2018-09-14T10:58:16.843Z,19.90
2018-09-14T11:00:45.362Z,20.20
2018-09-14T11:03:14.514Z,20.20
2018-09-14T11:05:43.958Z,20.20
2018-09-14T11:08:12.534Z,20.10
2018-09-14T11:10:41.234Z,20.30
2018-09-14T11:13:10.503Z,20.50
2018-09-14T11:15:39.026Z,20.40
2018-09-14T11:18:07.687Z,20.80
2018-09-14T11:20:36.385Z,20.70
2018-09-14T11:23:04.861Z,20.60
2018-09-14T11:25:33.559Z,20.70
2018-09-14T11:28:02.248Z,21.10
2018-09-14T11:30:30.941Z,21.40
2018-09-14T11:33:00.015Z,21.50
2018-09-14T11:35:28.771Z,21.50
2018-09-14T11:37:57.526Z,21.70
2018-09-14T11:40:26.164Z,21.90
2018-09-14T11:42:54.857Z,22.10
2018-09-14T11:45:23.444Z,22.10
2018-09-14T11:47:51.918Z,22.10
2018-09-14T11:50:20.544Z,22.20
2018-09-14T11:52:49.790Z,22.20
2018-09-14T11:55:18.436Z,22.20
2018-09-14T11:57:48.277Z,22.20
2018-09-14T12:00:17.047Z,22.30
2018-09-14T12:02:45.598Z,22.40
2018-09-14T12:05:14.727Z,22.30
2018-09-14T12:07:43.274Z,22.40
2018-09-14T12:10:12.392Z,22.50
2018-09-14T12:12:41.105Z,22.30
2018-09-14T12:15:09.888Z,22.00
2018-09-14T12:17:39.147Z,21.80
2018-09-14T12:20:08.177Z,22.00
2018-09-14T12:22:36.788Z,22.20
2018-09-14T12:25:05.549Z,22.20
2018-09-14T12:27:34.227Z,22.30
2018-09-14T12:30:02.808Z,22.50
2018-09-14T12:32:31.458Z,22.60
2018-09-14T12:34:59.989Z,22.90
2018-09-14T12:37:28.722Z,23.00
2018-09-14T12:39:57.292Z,23.10
2018-09-14T12:42:31.991Z,23.30
2018-09-14T12:45:00.997Z,23.40
2018-09-14T12:47:30.523Z,23.00
2018-09-14T12:52:46.447Z,22.70
2018-09-14T12:55:16.531Z,23.20
2018-09-14T12:57:45.456Z,23.40
2018-09-14T13:00:16.295Z,23.00
2018-09-14T13:02:45.106Z,23.10
2018-09-14T13:05:15.582Z,23.20
2018-09-14T13:07:44.613Z,23.30
2018-09-14T13:10:13.119Z,23.80
2018-09-14T13:12:41.930Z,23.70
2018-09-14T13:15:11.295Z,23.50
2018-09-14T13:17:41.622Z,23.80
2018-09-14T13:20:10.917Z,24.20
2018-09-14T13:22:40.205Z,24.40
2018-09-14T13:25:10.231Z,24.30
2018-09-14T13:27:38.840Z,24.40
2018-09-14T13:30:07.809Z,24.50
2018-09-14T13:32:36.978Z,24.50
2018-09-14T13:35:06.666Z,24.70
2018-09-14T13:37:35.387Z,24.90
2018-09-14T13:40:03.999Z,24.80
2018-09-14T13:42:32.669Z,24.70
2018-09-14T13:45:01.799Z,24.40
2018-09-14T13:47:30.627Z,24.40
2018-09-14T13:50:00.182Z,24.40
2018-09-14T13:52:30.899Z,24.20
2018-09-14T13:54:59.453Z,24.20
2018-09-14T13:57:28.325Z,24.20
2018-09-14T13:59:57.939Z,23.60
2018-09-14T14:02:27.058Z,23.20
2018-09-14T14:04:55.595Z,23.10
2018-09-14T14:07:24.234Z,22.80
2018-09-14T14:09:53.242Z,22.60
2018-09-14T14:12:22.106Z,22.60
2018-09-14T14:14:50.707Z,22.50
2018-09-14T14:17:19.677Z,22.30
2018-09-14T14:19:49.064Z,22.40
2018-09-14T14:22:18.793Z,22.50
2018-09-14T14:24:48.152Z,22.70
2018-09-14T14:27:16.627Z,22.50
2018-09-14T14:29:45.516Z,22.30
2018-09-14T14:32:14.220Z,22.30
2018-09-14T14:34:42.779Z,22.40
2018-09-14T14:37:11.333Z,22.40
2018-09-14T14:39:40.082Z,22.30
2018-09-14T14:42:08.613Z,22.30
2018-09-14T14:44:37.990Z,22.30
2018-09-14T14:47:06.492Z,22.30
2018-09-14T14:49:35.143Z,22.20
2018-09-14T14:52:04.506Z,22.00
2018-09-14T14:54:33.874Z,22.00
2018-09-14T14:57:02.422Z,22.00
2018-09-14T14:59:31.654Z,21.90
2018-09-14T15:02:00.186Z,22.00
2018-09-14T15:04:28.760Z,22.10
2018-09-14T15:06:57.321Z,22.10
2018-09-14T15:09:25.952Z,22.10
2018-09-14T15:11:54.686Z,22.20
2018-09-14T15:14:23.434Z,22.00
2018-09-14T15:16:53.299Z,21.80
2018-09-14T15:19:21.936Z,21.80
2018-09-14T15:21:50.508Z,21.80
2018-09-14T15:24:19.001Z,21.80
2018-09-14T15:26:47.601Z,21.80
2018-09-14T15:29:16.135Z,21.70
2018-09-14T15:31:44.763Z,21.60
2018-09-14T15:34:14.368Z,21.50
2018-09-14T15:36:43.458Z,21.40
2018-09-14T15:39:12.952Z,21.40
2018-09-14T15:41:41.865Z,21.30
2018-09-14T15:44:10.402Z,21.20
2018-09-14T15:46:38.985Z,21.20
2018-09-14T15:49:08.202Z,21.20
2018-09-14T15:51:36.866Z,21.10
2018-09-14T15:54:05.830Z,21.10
2018-09-14T15:56:34.333Z,21.00
2018-09-14T15:59:03.369Z,21.10
2018-09-14T16:01:32.038Z,21.20
2018-09-14T16:04:01.297Z,21.30
2018-09-14T16:06:30.483Z,21.30
2018-09-14T16:08:59.079Z,21.30
2018-09-14T16:11:27.695Z,21.30
2018-09-14T16:13:56.172Z,21.20
2018-09-14T16:16:31.918Z,21.30
2018-09-14T16:19:00.558Z,21.40
2018-09-14T16:21:29.800Z,21.40
2018-09-14T16:23:58.370Z,21.30
2018-09-14T16:26:27.211Z,21.20
2018-09-14T16:28:55.946Z,21.10
2018-09-14T16:31:24.431Z,21.20
2018-09-14T16:33:52.967Z,21.20
2018-09-14T16:36:21.592Z,21.20
2018-09-14T16:38:50.114Z,21.10
2018-09-14T16:41:19.438Z,21.10
2018-09-14T16:43:48.089Z,21.10
2018-09-14T16:46:16.622Z,21.00
2018-09-14T16:48:45.817Z,21.00
2018-09-14T16:51:15.397Z,21.10
2018-09-14T16:53:43.922Z,21.00
2018-09-14T16:56:12.466Z,20.90
2018-09-14T16:58:42.153Z,20.90
2018-09-14T17:01:10.694Z,20.80
2018-09-14T17:03:39.270Z,20.80
2018-09-14T17:06:07.849Z,20.90
2018-09-14T17:08:36.432Z,20.80
2018-09-14T17:11:05.778Z,20.70
2018-09-14T17:13:34.494Z,20.60
2018-09-14T17:16:03.111Z,20.60
2018-09-14T17:18:31.735Z,20.60
2018-09-14T17:21:01.146Z,20.50
2018-09-14T17:23:29.797Z,20.60
2018-09-14T17:25:58.400Z,20.70
2018-09-14T17:28:27.974Z,20.70
2018-09-14T17:30:59.774Z,20.70
2018-09-14T17:33:29.034Z,20.70
2018-09-14T17:35:58.546Z,20.60
2018-09-14T17:38:27.235Z,20.60
2018-09-14T17:40:55.786Z,20.50
2018-09-14T17:43:24.586Z,20.50
2018-09-14T17:45:53.206Z,20.40
2018-09-14T17:48:21.845Z,20.50
2018-09-14T17:50:50.865Z,20.50
2018-09-14T17:53:19.559Z,20.60
2018-09-14T17:55:48.305Z,20.60
2018-09-14T17:58:17.152Z,20.60
2018-09-14T18:00:46.135Z,20.70
2018-09-14T18:03:14.812Z,20.70
2018-09-14T18:05:43.563Z,20.60
2018-09-14T18:08:12.200Z,20.60
2018-09-14T18:10:41.082Z,20.60
2018-09-14T18:13:09.725Z,20.50
2018-09-14T18:15:38.511Z,20.50
2018-09-14T18:18:07.161Z,20.40
2018-09-14T18:20:36.813Z,20.40
2018-09-14T18:23:06.061Z,20.30
2018-09-14T18:25:39.303Z,20.30
2018-09-14T18:28:08.582Z,20.30
2018-09-14T18:30:37.777Z,20.30
2018-09-14T18:33:06.696Z,20.20
2018-09-14T18:35:35.614Z,20.20
2018-09-14T18:38:04.686Z,20.20
2018-09-14T18:40:33.244Z,20.20
2018-09-14T18:43:01.866Z,20.10
2018-09-14T18:45:30.740Z,20.00
2018-09-14T18:47:59.663Z,20.00
2018-09-14T18:50:28.419Z,20.00
2018-09-14T18:52:57.023Z,19.90
2018-09-14T18:55:26.660Z,19.90
2018-09-14T18:57:55.765Z,19.80
2018-09-14T19:00:25.893Z,19.80
2018-09-14T19:02:54.616Z,19.80
2018-09-14T19:05:23.551Z,19.80
2018-09-14T19:07:52.376Z,19.80
2018-09-14T19:10:20.993Z,19.70
2018-09-14T19:12:49.941Z,19.70
2018-09-14T19:15:31.077Z,19.70
2018-09-14T19:18:14.155Z,19.60
2018-09-14T19:20:45.468Z,19.60
2018-09-14T19:23:15.046Z,19.60
2018-09-14T19:25:49.261Z,19.60
2018-09-14T19:28:18.052Z,19.60
2018-09-14T19:30:46.683Z,19.50
2018-09-14T19:33:15.248Z,19.50
2018-09-14T19:35:44.542Z,19.50
2018-09-14T19:38:14.632Z,19.50
2018-09-14T19:40:43.490Z,19.50
2018-09-14T19:43:12.395Z,19.50
2018-09-14T19:45:41.550Z,19.40
2018-09-14T19:48:10.477Z,19.40
2018-09-14T19:50:39.932Z,19.40
2018-09-14T19:53:09.527Z,19.40
2018-09-14T19:55:38.994Z,19.40
2018-09-14T19:58:08.030Z,19.40
2018-09-14T20:00:40.009Z,19.40
2018-09-14T20:03:08.999Z,19.50
2018-09-14T20:05:39.108Z,19.50
2018-09-14T20:08:07.984Z,19.40
2018-09-14T20:10:37.294Z,19.40
2018-09-14T20:13:07.296Z,19.30
2018-09-14T20:15:36.584Z,19.20
2018-09-14T20:18:06.004Z,19.20
2018-09-14T20:20:36.024Z,19.20
2018-09-14T20:23:05.222Z,19.20
2018-09-14T20:25:33.961Z,19.10
2018-09-14T20:28:02.496Z,19.10
2018-09-14T20:30:31.107Z,19.10
2018-09-14T20:32:59.633Z,19.10
2018-09-14T20:35:28.298Z,19.10
2018-09-14T20:37:56.824Z,19.10
2018-09-14T20:40:25.448Z,19.20
2018-09-14T20:42:53.993Z,19.20
2018-09-14T20:45:23.453Z,19.20
2018-09-14T20:47:52.114Z,19.20
2018-09-14T20:50:21.436Z,19.20
2018-09-14T20:52:54.637Z,19.20
2018-09-14T20:55:36.792Z,19.00
2018-09-14T20:58:05.789Z,19.00
2018-09-14T21:00:34.602Z,18.90
2018-09-14T21:03:03.814Z,18.90
2018-09-14T21:05:32.640Z,18.90
2018-09-14T21:08:01.737Z,18.90
2018-09-14T21:10:30.286Z,18.90
2018-09-14T21:12:59.103Z,18.80
2018-09-14T21:15:27.879Z,18.80
2018-09-14T21:17:57.441Z,18.80
2018-09-14T21:20:27.321Z,18.70
2018-09-14T21:22:56.036Z,18.70
2018-09-14T21:25:24.545Z,18.70
2018-09-14T21:27:53.156Z,18.70
2018-09-14T21:30:21.698Z,18.80
2018-09-14T21:32:51.669Z,18.80
2018-09-14T21:35:20.484Z,18.80
2018-09-14T21:37:49.107Z,18.80
2018-09-14T21:40:17.651Z,18.70
2018-09-14T21:42:46.849Z,18.70
2018-09-14T21:45:16.018Z,18.70
2018-09-14T21:47:44.731Z,18.70
2018-09-14T21:50:13.366Z,18.70
2018-09-14T21:52:42.236Z,18.70
2018-09-14T21:55:10.817Z,18.70
2018-09-14T21:57:39.538Z,18.70
2018-09-14T22:00:14.553Z,18.70
2018-09-14T22:02:43.170Z,18.70
2018-09-14T22:05:11.903Z,18.70
2018-09-14T22:07:40.428Z,18.70
2018-09-14T22:10:09.056Z,18.70
2018-09-14T22:12:38.261Z,18.80
2018-09-14T22:15:07.197Z,18.80
2018-09-14T22:17:36.763Z,18.80
2018-09-14T22:20:06.585Z,18.80
2018-09-14T22:22:35.196Z,18.80
2018-09-14T22:25:03.930Z,18.90
2018-09-14T22:27:33.603Z,18.90
2018-09-14T22:30:02.942Z,18.90
2018-09-14T22:32:31.707Z,18.80
2018-09-14T22:35:00.286Z,18.80
2018-09-14T22:37:29.007Z,18.80
2018-09-14T22:39:58.169Z,18.80
2018-09-14T22:42:26.986Z,18.80
2018-09-14T22:44:55.622Z,18.80
2018-09-14T22:47:24.357Z,18.70
2018-09-14T22:49:53.586Z,18.70
2018-09-14T22:52:23.052Z,18.70
2018-09-14T22:54:52.843Z,18.80
2018-09-14T22:57:21.700Z,18.70
2018-09-14T22:59:50.756Z,18.70
2018-09-14T23:02:19.717Z,18.80
2018-09-14T23:04:48.268Z,18.80
2018-09-14T23:07:17.911Z,18.80
2018-09-14T23:09:46.706Z,18.80
2018-09-14T23:12:16.101Z,18.80
2018-09-14T23:14:44.718Z,18.70
2018-09-14T23:17:20.528Z,18.70
2018-09-14T23:19:50.616Z,18.70
2018-09-14T23:22:19.213Z,18.70
2018-09-14T23:24:47.756Z,18.70
2018-09-14T23:27:16.814Z,18.70
2018-09-14T23:29:45.303Z,18.70
2018-09-14T23:32:14.654Z,18.70
2018-09-14T23:34:43.376Z,18.70
2018-09-14T23:37:11.966Z,18.70
2018-09-14T23:39:41.569Z,18.70
2018-09-14T23:42:10.106Z,18.80
2018-09-14T23:44:39.489Z,18.70
2018-09-14T23:47:08.624Z,18.70
2018-09-14T23:49:37.500Z,18.70
2018-09-14T23:52:06.211Z,18.70
2018-09-14T23:54:34.997Z,18.70
2018-09-14T23:57:04.284Z,18.70
2018-09-14T23:59:32.981Z,18.70
